Main page
Satellite images 15-day forecastsClimateMarine weather Cyclones Lightning AirportsFAQ Newsletter About
Weather : Europe Africa North America South America Asia Australia-Oceania Others
Languages Contact

Istanbul Sabiha Gökçen, Turkey

latitude: 40-53-55N, longitude: 029-18-33E, elevation: 95 m


METAR: LTFJ 210320Z VRB02KT CAVOK 10/08 Q1016 NOSIG RMK RWY24 00000KT
TAF: LTFJ 202240Z 2100/2124 VRB02KT CAVOK PROB30 TEMPO 2103/2106 4000 BR

Time: 06:44 (03:44 UTC)

Current weather observation

The report was made 24 minutes ago, at 03:20 UTC  
Wind 02 kt from variable directions
Temperature 10°C
Humidity 87%
Pressure 1016 hPa
Visibility 10 km or more
no clouds below 1500 m and no cumulonimbus

Change units

Forecast

The report was made 05 hours and 04 minutes ago, at 22:40 UTC  
Forecast valid from 21 at 00 UTC to 21 at 24 UTC
Wind 02 kt from variable directions
Visibility 10 km or more
no clouds below 1500 m and no cumulonimbus
Probability 30% :
Temporary
from 21 at 03 UTC to 21 at 06 UTC
Visibility 4000 m
mist
The information on this site is subject to a disclaimer
Weather : Europe Africa North America South America Asia Australia-Oceania Others
Satellite images 15-day forecastsClimateMarine weather Cyclones Lightning AirportsFAQ Languages Contact Newsletter About